Time;durP1;ratioP1;P1;durP2;ratioP2;P2;SDS_P1;SDS_P2;PMS_P1;PMS_P2;Temp;Humidity;BMP_temperature;BMP_pressure;BME280_temperature;BME280_humidity;BME280_pressure;Samples;Min_cycle;Max_cycle;Signal;HPM_P1;HPM_P2
2022/09/07 00:00:59;;;;;;;9.68;3.70;;;;;;;;;;5090670;28;20216;-65
2022/09/07 00:03:27;;;;;;;9.50;4.03;;;;;;;;;;5093205;27;21217;-68
2022/09/07 00:05:55;;;;;;;4.75;3.60;;;;;;;;;;5101168;28;20932;-67
2022/09/07 00:08:25;;;;;;;4.22;3.55;;;;;;;;;;5084754;27;20200;-67
2022/09/07 00:10:54;;;;;;;7.32;3.85;;;;;;;;;;5095010;27;20200;-68
2022/09/07 00:13:23;;;;;;;8.35;3.15;;;;;;;;;;5091567;27;20234;-66
2022/09/07 00:15:50;;;;;;;5.35;3.13;;;;;;;;;;5099518;28;20208;-67
2022/09/07 00:18:17;;;;;;;8.23;3.55;;;;;;;;;;5100757;27;20330;-67
2022/09/07 00:20:45;;;;;;;5.85;3.10;;;;;;;;;;5092043;27;20215;-64
2022/09/07 00:23:12;;;;;;;7.60;3.90;;;;;;;;;;5097285;27;20230;-69
2022/09/07 00:25:40;;;;;;;9.93;3.95;;;;;;;;;;5099230;27;20704;-67
2022/09/07 00:28:08;;;;;;;7.13;3.90;;;;;;;;;;5097034;27;20283;-64
2022/09/07 00:30:40;;;;;;;7.82;4.28;;;;;;;;;;5114940;27;20195;-64
2022/09/07 00:33:08;;;;;;;7.03;4.57;;;;;;;;;;5107299;27;20234;-63
2022/09/07 00:35:42;;;;;;;9.48;4.10;;;;;;;;;;5091785;27;20677;-64
2022/09/07 00:38:10;;;;;;;6.03;3.80;;;;;;;;;;5091205;27;20285;-65
2022/09/07 00:40:37;;;;;;;10.07;4.00;;;;;;;;;;5098654;27;20269;-67
2022/09/07 00:43:05;;;;;;;5.72;3.92;;;;;;;;;;5092454;27;20241;-68
2022/09/07 00:45:33;;;;;;;6.88;3.80;;;;;;;;;;5091015;27;20288;-68
2022/09/07 00:48:00;;;;;;;8.95;4.43;;;;;;;;;;5115861;27;20230;-62
2022/09/07 00:50:43;;;;;;;11.20;4.60;;;;;;;;;;5095687;27;20199;-64
2022/09/07 00:53:14;;;;;;;7.63;3.97;;;;;;;;;;5111584;27;20473;-67
2022/09/07 00:55:43;;;;;;;6.57;3.70;;;;;;;;;;5118601;27;20211;-67
2022/09/07 00:58:14;;;;;;;8.95;4.05;;;;;;;;;;5110330;27;20234;-67
2022/09/07 01:00:44;;;;;;;6.53;3.75;;;;;;;;;;5119637;27;20199;-68
2022/09/07 01:03:11;;;;;;;6.22;3.67;;;;;;;;;;5109810;27;20219;-67
2022/09/07 01:05:47;;;;;;;5.65;3.70;;;;;;;;;;5097576;27;20219;-67
2022/09/07 01:08:15;;;;;;;6.78;3.70;;;;;;;;;;5107391;27;20260;-67
2022/09/07 01:10:43;;;;;;;8.10;3.97;;;;;;;;;;5096393;27;20210;-65
2022/09/07 01:13:10;;;;;;;8.48;4.05;;;;;;;;;;5091052;27;20256;-67
2022/09/07 01:15:58;;;;;;;7.28;4.07;;;;;;;;;;5098457;27;20209;-66
2022/09/07 01:18:58;;;;;;;7.13;4.35;;;;;;;;;;5099542;27;20296;-64
2022/09/07 01:21:25;;;;;;;6.97;3.80;;;;;;;;;;5066162;27;20245;-65
2022/09/07 01:24:02;;;;;;;7.13;4.10;;;;;;;;;;5117840;27;20223;-64
2022/09/07 01:26:37;;;;;;;5.90;3.40;;;;;;;;;;5092337;27;20219;-64
2022/09/07 01:29:15;;;;;;;6.03;3.67;;;;;;;;;;5091230;27;20214;-63
2022/09/07 01:31:48;;;;;;;8.05;3.80;;;;;;;;;;5093424;27;20199;-64
2022/09/07 01:34:24;;;;;;;7.55;3.33;;;;;;;;;;5098036;27;20280;-65
2022/09/07 01:36:54;;;;;;;15.43;4.28;;;;;;;;;;5110773;27;20207;-67
2022/09/07 01:39:24;;;;;;;7.88;3.53;;;;;;;;;;5111935;27;20214;-69
2022/09/07 01:41:54;;;;;;;5.30;3.33;;;;;;;;;;5095453;27;20208;-66
2022/09/07 01:44:24;;;;;;;7.75;2.95;;;;;;;;;;5093060;27;20210;-66
2022/09/07 01:46:56;;;;;;;3.83;2.92;;;;;;;;;;5096795;27;20223;-67
2022/09/07 01:49:35;;;;;;;8.07;3.20;;;;;;;;;;5097671;27;20200;-67
2022/09/07 01:52:04;;;;;;;7.63;2.80;;;;;;;;;;5090936;27;20230;-67
2022/09/07 01:54:34;;;;;;;7.07;2.85;;;;;;;;;;5094583;27;20203;-66
2022/09/07 01:57:04;;;;;;;5.97;2.60;;;;;;;;;;5091899;27;20664;-67
2022/09/07 01:59:38;;;;;;;5.03;2.45;;;;;;;;;;5093035;27;20753;-63
2022/09/07 02:02:06;;;;;;;5.72;2.30;;;;;;;;;;5090548;27;20261;-68
2022/09/07 02:04:42;;;;;;;4.80;2.45;;;;;;;;;;5102046;27;20211;-64
2022/09/07 02:07:36;;;;;;;3.35;2.42;;;;;;;;;;5099772;27;20230;-67
2022/09/07 02:10:08;;;;;;;7.10;2.80;;;;;;;;;;5100127;27;20226;-64
2022/09/07 02:12:47;;;;;;;2.88;2.28;;;;;;;;;;5098070;27;20965;-68
2022/09/07 02:15:21;;;;;;;6.78;2.42;;;;;;;;;;5084883;27;20214;-66
2022/09/07 02:17:52;;;;;;;4.47;2.45;;;;;;;;;;5098437;27;20199;-67
2022/09/07 02:20:22;;;;;;;5.30;2.42;;;;;;;;;;5096749;27;20685;-68
2022/09/07 02:22:56;;;;;;;5.97;2.20;;;;;;;;;;5091064;27;20216;-68
2022/09/07 02:25:25;;;;;;;4.40;2.10;;;;;;;;;;5104402;27;20239;-67
2022/09/07 02:27:56;;;;;;;4.97;2.00;;;;;;;;;;5101218;27;20255;-65
2022/09/07 02:30:23;;;;;;;6.20;2.22;;;;;;;;;;5113575;27;20299;-64
2022/09/07 02:32:50;;;;;;;4.22;2.50;;;;;;;;;;5106280;27;20504;-62
2022/09/07 02:35:18;;;;;;;5.95;2.22;;;;;;;;;;5085484;27;20206;-63
2022/09/07 02:37:46;;;;;;;3.05;2.05;;;;;;;;;;5097590;27;20665;-67
2022/09/07 02:40:14;;;;;;;2.05;1.85;;;;;;;;;;5107977;27;20200;-65
2022/09/07 02:42:42;;;;;;;5.25;2.42;;;;;;;;;;5094247;27;20252;-67
2022/09/07 02:45:11;;;;;;;3.97;2.28;;;;;;;;;;5093640;27;20200;-65
2022/09/07 02:47:47;;;;;;;4.32;2.38;;;;;;;;;;5126494;27;20191;-65
2022/09/07 02:50:21;;;;;;;2.45;2.25;;;;;;;;;;5102793;27;20199;-67
2022/09/07 02:53:02;;;;;;;8.65;2.53;;;;;;;;;;5096814;27;20281;-66
2022/09/07 02:55:36;;;;;;;6.15;2.63;;;;;;;;;;5097923;27;20227;-66
2022/09/07 02:58:12;;;;;;;4.95;2.40;;;;;;;;;;5085377;27;20207;-64
2022/09/07 03:00:44;;;;;;;5.72;2.38;;;;;;;;;;5092556;27;20226;-65
2022/09/07 03:03:21;;;;;;;4.95;2.38;;;;;;;;;;5106118;27;20765;-68
2022/09/07 03:05:59;;;;;;;6.93;2.33;;;;;;;;;;5094241;27;20234;-68
2022/09/07 03:08:33;;;;;;;6.13;2.70;;;;;;;;;;5090470;27;20211;-63
2022/09/07 03:11:00;;;;;;;3.17;2.30;;;;;;;;;;5107891;27;20835;-66
2022/09/07 03:13:29;;;;;;;3.05;2.47;;;;;;;;;;5092804;27;20889;-69
2022/09/07 03:15:56;;;;;;;4.35;2.22;;;;;;;;;;5096239;27;20212;-68
2022/09/07 03:18:25;;;;;;;7.07;2.70;;;;;;;;;;5090792;27;20644;-68
2022/09/07 03:20:52;;;;;;;6.05;2.75;;;;;;;;;;5101988;27;20737;-68
2022/09/07 03:23:20;;;;;;;3.30;2.17;;;;;;;;;;5091839;27;20223;-68
2022/09/07 03:25:48;;;;;;;6.03;2.50;;;;;;;;;;5094394;27;20226;-68
2022/09/07 03:28:15;;;;;;;5.72;2.80;;;;;;;;;;5112328;27;20196;-67
2022/09/07 03:30:43;;;;;;;3.28;2.67;;;;;;;;;;5097805;27;20242;-66
2022/09/07 03:33:10;;;;;;;3.80;2.50;;;;;;;;;;5106248;27;20224;-67
2022/09/07 03:35:38;;;;;;;5.45;2.47;;;;;;;;;;5112741;27;20203;-66
2022/09/07 03:38:05;;;;;;;9.38;2.95;;;;;;;;;;5103835;27;20237;-66
2022/09/07 03:40:32;;;;;;;5.75;2.70;;;;;;;;;;5105412;27;20209;-68
2022/09/07 03:43:00;;;;;;;6.20;2.70;;;;;;;;;;5098939;27;20806;-67
2022/09/07 03:45:27;;;;;;;6.53;2.78;;;;;;;;;;5098977;27;20260;-68
2022/09/07 03:47:55;;;;;;;4.13;2.63;;;;;;;;;;5095407;27;20637;-68
2022/09/07 03:50:22;;;;;;;5.10;2.80;;;;;;;;;;5103644;27;20211;-66
2022/09/07 03:52:51;;;;;;;5.45;2.97;;;;;;;;;;5106285;27;20633;-68
2022/09/07 03:55:18;;;;;;;6.13;2.90;;;;;;;;;;5122833;27;20438;-65
2022/09/07 03:57:46;;;;;;;4.70;2.65;;;;;;;;;;5104727;27;20203;-68
2022/09/07 04:00:13;;;;;;;7.40;2.83;;;;;;;;;;5098047;27;20229;-68
2022/09/07 04:02:41;;;;;;;4.35;3.08;;;;;;;;;;5109736;27;20812;-65
2022/09/07 04:05:09;;;;;;;3.75;2.45;;;;;;;;;;5100788;27;20206;-67
2022/09/07 04:07:37;;;;;;;9.23;2.75;;;;;;;;;;5098864;27;20223;-68
2022/09/07 04:10:05;;;;;;;5.80;2.78;;;;;;;;;;5098903;27;20215;-65
2022/09/07 04:12:32;;;;;;;3.75;2.80;;;;;;;;;;5093227;27;20227;-70
2022/09/07 04:15:00;;;;;;;6.32;2.88;;;;;;;;;;5100727;27;20196;-70
2022/09/07 04:17:27;;;;;;;4.20;3.00;;;;;;;;;;5103498;27;20399;-66
2022/09/07 04:19:54;;;;;;;6.03;3.20;;;;;;;;;;5097255;27;20211;-66
2022/09/07 04:22:22;;;;;;;6.45;3.30;;;;;;;;;;5099697;27;20223;-70
2022/09/07 04:24:49;;;;;;;3.30;3.00;;;;;;;;;;5097089;27;20331;-73
2022/09/07 04:27:17;;;;;;;5.90;3.22;;;;;;;;;;5086543;28;20284;-66
2022/09/07 04:29:47;;;;;;;6.22;3.00;;;;;;;;;;5097871;27;20258;-67
2022/09/07 04:32:14;;;;;;;5.32;3.05;;;;;;;;;;5100265;27;20219;-69
2022/09/07 04:34:42;;;;;;;6.18;3.35;;;;;;;;;;5101434;27;20200;-66
2022/09/07 04:37:09;;;;;;;6.97;3.28;;;;;;;;;;5104087;27;20215;-70
2022/09/07 04:39:37;;;;;;;5.22;3.13;;;;;;;;;;5092046;27;20236;-66
2022/09/07 04:42:05;;;;;;;6.22;3.83;;;;;;;;;;5122557;27;20239;-66
2022/09/07 04:44:32;;;;;;;6.50;3.63;;;;;;;;;;5103605;27;20232;-67
2022/09/07 04:46:59;;;;;;;7.10;3.85;;;;;;;;;;5099696;27;20701;-69
2022/09/07 04:49:27;;;;;;;7.05;3.40;;;;;;;;;;5107403;27;20199;-67
2022/09/07 04:51:54;;;;;;;6.70;3.70;;;;;;;;;;5105382;27;20616;-71
2022/09/07 04:54:22;;;;;;;4.90;3.20;;;;;;;;;;5110813;27;20252;-67
2022/09/07 04:56:53;;;;;;;6.20;3.72;;;;;;;;;;5109552;27;20200;-68
2022/09/07 04:59:20;;;;;;;5.68;3.40;;;;;;;;;;5111641;27;20275;-68
2022/09/07 05:01:47;;;;;;;6.10;3.72;;;;;;;;;;5115330;27;20670;-67
2022/09/07 05:04:15;;;;;;;7.97;3.90;;;;;;;;;;5139115;27;20207;-68
2022/09/07 05:06:42;;;;;;;6.88;3.53;;;;;;;;;;5112112;27;20752;-67
2022/09/07 05:09:10;;;;;;;8.55;3.50;;;;;;;;;;5107223;27;20199;-68
2022/09/07 05:11:37;;;;;;;6.47;3.60;;;;;;;;;;5105790;27;20227;-68
2022/09/07 05:14:05;;;;;;;6.03;3.47;;;;;;;;;;5103388;27;20268;-67
2022/09/07 05:16:33;;;;;;;5.35;3.40;;;;;;;;;;5120572;27;20233;-68
2022/09/07 05:19:02;;;;;;;4.05;3.25;;;;;;;;;;5109207;27;20208;-66
2022/09/07 05:21:31;;;;;;;24.42;15.80;;;;;;;;;;5107248;27;20207;-67
2022/09/07 05:23:59;;;;;;;17.02;11.90;;;;;;;;;;5101846;27;20246;-63
2022/09/07 05:26:28;;;;;;;10.80;6.93;;;;;;;;;;5104291;27;20227;-67
2022/09/07 05:28:56;;;;;;;7.47;4.45;;;;;;;;;;5109069;27;20322;-66
2022/09/07 05:31:44;;;;;;;4.75;3.13;;;;;;;;;;5100693;27;20275;-66
2022/09/07 05:34:12;;;;;;;5.88;3.10;;;;;;;;;;5108451;27;20208;-66
2022/09/07 05:36:55;;;;;;;6.68;3.35;;;;;;;;;;5092155;27;20211;-65
2022/09/07 05:39:22;;;;;;;4.47;2.70;;;;;;;;;;5097975;27;20211;-67
2022/09/07 05:41:50;;;;;;;6.95;3.15;;;;;;;;;;5096134;27;20221;-65
2022/09/07 05:44:17;;;;;;;4.30;2.63;;;;;;;;;;5098886;27;20206;-67
2022/09/07 05:47:05;;;;;;;4.85;2.70;;;;;;;;;;5093058;27;20308;-65
2022/09/07 05:49:33;;;;;;;6.18;2.80;;;;;;;;;;5083598;27;20211;-64
2022/09/07 05:52:00;;;;;;;4.78;2.58;;;;;;;;;;5094762;27;20660;-65
2022/09/07 05:54:28;;;;;;;4.72;2.72;;;;;;;;;;5089025;27;20226;-63
2022/09/07 05:56:55;;;;;;;8.10;2.50;;;;;;;;;;5092719;27;20207;-66
2022/09/07 05:59:22;;;;;;;5.60;3.33;;;;;;;;;;5091746;27;20199;-67
2022/09/07 06:01:50;;;;;;;8.77;3.30;;;;;;;;;;5095888;27;20257;-67
2022/09/07 06:04:18;;;;;;;6.25;2.92;;;;;;;;;;5091783;27;20218;-66
2022/09/07 06:06:45;;;;;;;4.72;2.80;;;;;;;;;;5090024;27;20223;-67
2022/09/07 06:09:32;;;;;;;8.30;3.08;;;;;;;;;;5100445;27;20207;-67
2022/09/07 06:12:04;;;;;;;8.57;2.90;;;;;;;;;;5109343;27;23690;-65
2022/09/07 06:14:32;;;;;;;15.32;3.88;;;;;;;;;;5092985;27;20207;-65
2022/09/07 06:17:00;;;;;;;7.18;3.22;;;;;;;;;;5092039;27;23054;-67
2022/09/07 06:19:27;;;;;;;4.78;3.20;;;;;;;;;;5110045;27;21254;-65
2022/09/07 06:21:55;;;;;;;8.25;3.00;;;;;;;;;;5105916;27;20256;-64
2022/09/07 06:24:22;;;;;;;9.15;3.72;;;;;;;;;;5111211;27;20574;-68
2022/09/07 06:26:50;;;;;;;5.85;3.10;;;;;;;;;;5107406;27;20215;-67
2022/09/07 06:29:18;;;;;;;3.55;2.80;;;;;;;;;;5125308;27;20184;-65
2022/09/07 06:31:45;;;;;;;6.13;3.05;;;;;;;;;;5113572;27;20222;-67
2022/09/07 06:34:33;;;;;;;6.30;3.13;;;;;;;;;;5109345;27;20204;-67
2022/09/07 06:37:00;;;;;;;6.13;3.03;;;;;;;;;;5107029;27;20256;-66
2022/09/07 06:39:28;;;;;;;6.43;3.17;;;;;;;;;;5102866;27;20216;-66
2022/09/07 06:41:55;;;;;;;6.47;3.05;;;;;;;;;;5104590;27;20336;-67
2022/09/07 06:44:24;;;;;;;7.78;3.00;;;;;;;;;;5106786;27;20207;-66
2022/09/07 06:46:51;;;;;;;8.13;3.80;;;;;;;;;;5088931;27;20224;-66
2022/09/07 06:49:25;;;;;;;3.92;2.90;;;;;;;;;;5098698;27;20284;-67
2022/09/07 06:51:54;;;;;;;6.35;3.53;;;;;;;;;;5094611;27;20211;-64
2022/09/07 06:54:21;;;;;;;5.78;3.42;;;;;;;;;;5093341;27;20617;-68
2022/09/07 06:57:08;;;;;;;8.48;3.63;;;;;;;;;;5089240;27;20248;-63
2022/09/07 06:59:36;;;;;;;7.93;3.22;;;;;;;;;;5084943;27;20224;-64
2022/09/07 07:02:05;;;;;;;6.72;3.05;;;;;;;;;;5090270;27;20227;-64
2022/09/07 07:04:32;;;;;;;6.05;3.17;;;;;;;;;;5091758;27;20207;-68
2022/09/07 07:07:09;;;;;;;7.32;2.97;;;;;;;;;;5090496;27;20215;-65
2022/09/07 07:09:37;;;;;;;5.55;3.58;;;;;;;;;;5089701;27;20206;-68
2022/09/07 07:12:05;;;;;;;5.38;3.05;;;;;;;;;;5096499;27;20226;-67
2022/09/07 07:14:34;;;;;;;4.82;3.38;;;;;;;;;;5083977;27;20616;-64
2022/09/07 07:17:05;;;;;;;4.32;3.10;;;;;;;;;;5106416;27;20200;-63
2022/09/07 07:19:33;;;;;;;5.43;3.25;;;;;;;;;;5089189;27;20203;-66
2022/09/07 07:22:01;;;;;;;8.48;3.42;;;;;;;;;;5083342;27;20227;-68
2022/09/07 07:24:48;;;;;;;11.35;3.00;;;;;;;;;;5094934;27;20207;-67
2022/09/07 07:27:16;;;;;;;6.85;2.85;;;;;;;;;;5090559;27;20303;-68
2022/09/07 07:29:44;;;;;;;6.97;3.13;;;;;;;;;;5096505;27;20668;-67
2022/09/07 07:32:12;;;;;;;4.93;3.15;;;;;;;;;;5104991;27;20238;-67
2022/09/07 07:34:39;;;;;;;4.35;3.08;;;;;;;;;;5089350;27;20245;-67
2022/09/07 07:37:08;;;;;;;7.10;3.13;;;;;;;;;;5106970;27;20565;-66
2022/09/07 07:39:36;;;;;;;11.40;3.30;;;;;;;;;;5107075;27;20686;-64
2022/09/07 07:42:23;;;;;;;3.97;3.20;;;;;;;;;;5107380;27;20322;-66
2022/09/07 07:44:50;;;;;;;5.32;3.10;;;;;;;;;;5098480;27;20236;-68
2022/09/07 07:47:38;;;;;;;7.30;3.80;;;;;;;;;;5102240;27;20315;-66
2022/09/07 07:50:07;;;;;;;9.35;3.40;;;;;;;;;;5090417;27;20611;-66
2022/09/07 07:52:54;;;;;;;5.95;3.17;;;;;;;;;;5087996;27;20600;-65
2022/09/07 07:55:41;;;;;;;7.88;3.30;;;;;;;;;;5105902;27;20209;-66
2022/09/07 07:58:10;;;;;;;5.20;3.25;;;;;;;;;;5109025;27;20207;-67
2022/09/07 08:00:39;;;;;;;4.38;2.97;;;;;;;;;;5093722;28;20214;-69
2022/09/07 08:03:24;;;;;;;10.90;3.40;;;;;;;;;;5095076;27;20231;-66
2022/09/07 08:05:52;;;;;;;5.15;3.10;;;;;;;;;;5104696;27;20227;-66
2022/09/07 08:08:20;;;;;;;5.30;2.85;;;;;;;;;;5106479;27;20227;-67
2022/09/07 08:10:48;;;;;;;3.15;2.75;;;;;;;;;;5105946;27;20298;-68
2022/09/07 08:13:16;;;;;;;5.97;3.17;;;;;;;;;;5089670;27;20215;-68
2022/09/07 08:15:47;;;;;;;6.03;3.13;;;;;;;;;;5121808;27;20225;-66
2022/09/07 08:18:15;;;;;;;5.15;2.85;;;;;;;;;;5093973;27;20224;-67
2022/09/07 08:20:43;;;;;;;3.55;2.97;;;;;;;;;;5100179;27;20207;-67
2022/09/07 08:23:10;;;;;;;3.45;3.15;;;;;;;;;;5102168;27;20231;-65
2022/09/07 08:25:38;;;;;;;6.00;3.08;;;;;;;;;;5122921;27;20198;-67
2022/09/07 08:28:05;;;;;;;6.60;3.40;;;;;;;;;;5104543;27;20223;-66
2022/09/07 08:30:33;;;;;;;4.93;2.90;;;;;;;;;;5107583;28;20199;-67
2022/09/07 08:33:00;;;;;;;7.00;3.15;;;;;;;;;;5101956;27;20739;-67
2022/09/07 08:35:28;;;;;;;6.68;3.10;;;;;;;;;;5101433;27;20235;-67
2022/09/07 08:37:55;;;;;;;4.53;2.75;;;;;;;;;;5103832;27;20199;-65
2022/09/07 08:40:22;;;;;;;6.70;3.30;;;;;;;;;;5100685;27;20199;-66
2022/09/07 08:43:03;;;;;;;7.07;3.60;;;;;;;;;;5103580;28;20231;-67
2022/09/07 08:45:36;;;;;;;6.38;3.10;;;;;;;;;;5101009;27;20664;-67
2022/09/07 08:48:04;;;;;;;9.85;3.10;;;;;;;;;;5098196;28;20234;-67
2022/09/07 08:50:38;;;;;;;5.82;2.90;;;;;;;;;;5102636;27;20215;-66
2022/09/07 08:53:09;;;;;;;3.35;2.88;;;;;;;;;;5095609;27;20635;-66
2022/09/07 08:55:42;;;;;;;5.38;2.90;;;;;;;;;;5097482;27;20200;-66
2022/09/07 08:58:24;;;;;;;7.60;2.70;;;;;;;;;;5100881;27;20210;-66
2022/09/07 09:01:13;;;;;;;3.67;2.78;;;;;;;;;;5103157;27;20204;-66
2022/09/07 09:04:00;;;;;;;6.10;3.22;;;;;;;;;;5099703;27;20215;-66
2022/09/07 09:07:04;;;;;;;9.60;2.92;;;;;;;;;;5097649;27;20199;-65
2022/09/07 09:09:50;;;;;;;6.85;3.10;;;;;;;;;;5118044;27;20252;-65
2022/09/07 09:12:18;;;;;;;5.45;3.08;;;;;;;;;;5117822;27;20243;-66
2022/09/07 09:14:54;;;;;;;5.60;2.85;;;;;;;;;;5099778;27;20213;-65
2022/09/07 09:17:22;;;;;;;7.28;2.95;;;;;;;;;;5103081;27;20231;-67
2022/09/07 09:19:49;;;;;;;4.43;2.72;;;;;;;;;;5093448;27;20245;-66
2022/09/07 09:22:21;;;;;;;3.28;2.47;;;;;;;;;;5100034;27;20592;-67
2022/09/07 09:24:51;;;;;;;5.05;2.85;;;;;;;;;;5097571;27;20259;-67
2022/09/07 09:27:18;;;;;;;4.40;2.58;;;;;;;;;;5123813;27;20863;-67
2022/09/07 09:29:46;;;;;;;5.10;2.65;;;;;;;;;;5106958;27;20286;-66
2022/09/07 09:32:32;;;;;;;4.25;2.70;;;;;;;;;;5102302;27;20299;-67
2022/09/07 09:35:00;;;;;;;3.97;2.67;;;;;;;;;;5101900;27;20199;-67
2022/09/07 09:37:38;;;;;;;3.40;2.20;;;;;;;;;;5131804;27;20218;-66
2022/09/07 09:40:08;;;;;;;5.97;2.85;;;;;;;;;;5113467;27;20198;-67
2022/09/07 09:42:37;;;;;;;5.15;2.33;;;;;;;;;;5103768;27;20276;-66
2022/09/07 09:45:13;;;;;;;3.70;2.67;;;;;;;;;;5121424;27;20349;-67
2022/09/07 09:47:46;;;;;;;10.48;3.25;;;;;;;;;;5104680;27;20799;-66
2022/09/07 09:50:20;;;;;;;3.40;2.22;;;;;;;;;;5107120;27;20204;-66
2022/09/07 09:53:22;;;;;;;5.20;2.85;;;;;;;;;;5103802;27;20311;-66
2022/09/07 09:55:51;;;;;;;7.60;2.47;;;;;;;;;;5117163;27;20299;-66
2022/09/07 09:58:32;;;;;;;2.95;2.13;;;;;;;;;;5106572;27;20220;-66
2022/09/07 10:01:20;;;;;;;4.05;2.97;;;;;;;;;;5122689;27;20275;-66
2022/09/07 10:03:49;;;;;;;3.75;2.45;;;;;;;;;;5107718;27;20257;-66
2022/09/07 10:06:20;;;;;;;7.43;3.13;;;;;;;;;;5099077;27;20300;-66
2022/09/07 10:09:05;;;;;;;3.75;2.35;;;;;;;;;;5102858;27;20760;-65
2022/09/07 10:11:43;;;;;;;8.60;2.63;;;;;;;;;;5094534;27;20282;-65
2022/09/07 10:14:57;;;;;;;10.50;2.75;;;;;;;;;;5102013;27;20212;-66
2022/09/07 10:17:35;;;;;;;5.50;2.38;;;;;;;;;;5097230;27;20223;-66
2022/09/07 10:20:14;;;;;;;6.10;2.70;;;;;;;;;;5099339;27;20290;-66
2022/09/07 10:22:46;;;;;;;8.48;2.38;;;;;;;;;;5090977;27;20318;-67
2022/09/07 10:25:26;;;;;;;5.75;2.40;;;;;;;;;;5104594;27;20195;-66
2022/09/07 10:28:01;;;;;;;5.10;2.20;;;;;;;;;;5101630;27;20327;-66
2022/09/07 10:30:31;;;;;;;5.60;2.08;;;;;;;;;;5098109;27;21309;-66
2022/09/07 10:33:05;;;;;;;7.07;2.20;;;;;;;;;;5103084;27;20224;-66
2022/09/07 10:35:45;;;;;;;5.20;2.13;;;;;;;;;;5096725;27;20577;-66
2022/09/07 10:38:15;;;;;;;4.47;1.80;;;;;;;;;;5094033;27;20204;-66
2022/09/07 10:41:02;;;;;;;4.18;1.95;;;;;;;;;;5085783;27;20199;-66
2022/09/07 10:43:42;;;;;;;3.90;1.98;;;;;;;;;;5099626;27;20700;-66
2022/09/07 10:46:21;;;;;;;2.78;1.77;;;;;;;;;;5092543;27;20655;-66
2022/09/07 10:49:28;;;;;;;4.85;1.95;;;;;;;;;;5084443;27;20220;-66
2022/09/07 10:52:18;;;;;;;4.22;1.83;;;;;;;;;;5098817;27;20199;-66
2022/09/07 10:54:59;;;;;;;4.93;1.83;;;;;;;;;;5110671;27;20207;-65
2022/09/07 10:57:33;;;;;;;5.00;2.30;;;;;;;;;;5119077;27;20199;-66
2022/09/07 11:00:13;;;;;;;3.72;1.95;;;;;;;;;;5106130;27;20195;-68
2022/09/07 11:03:00;;;;;;;2.60;1.65;;;;;;;;;;5089094;27;20247;-65
2022/09/07 11:05:48;;;;;;;3.67;1.67;;;;;;;;;;5093424;27;21642;-67
2022/09/07 11:08:18;;;;;;;2.33;1.73;;;;;;;;;;5087772;27;20222;-67
2022/09/07 11:10:52;;;;;;;3.55;1.85;;;;;;;;;;5088298;27;20210;-65
2022/09/07 11:13:23;;;;;;;4.20;1.80;;;;;;;;;;5110128;27;20327;-67
2022/09/07 11:15:59;;;;;;;2.33;1.58;;;;;;;;;;5089673;27;20286;-66
2022/09/07 11:18:32;;;;;;;3.30;1.60;;;;;;;;;;5091999;27;21048;-67
2022/09/07 11:21:02;;;;;;;3.75;2.03;;;;;;;;;;5096201;27;20607;-65
2022/09/07 11:23:31;;;;;;;4.43;1.70;;;;;;;;;;5079681;27;20603;-65
2022/09/07 11:26:10;;;;;;;4.45;1.83;;;;;;;;;;5085769;27;20210;-66
2022/09/07 11:28:38;;;;;;;2.15;1.55;;;;;;;;;;5080405;27;20247;-66
2022/09/07 11:31:10;;;;;;;2.58;1.70;;;;;;;;;;5086072;27;20226;-67
2022/09/07 11:34:04;;;;;;;3.22;1.60;;;;;;;;;;5092713;27;20223;-65
2022/09/07 11:36:57;;;;;;;7.22;5.90;;;;;;;;;;5104890;27;20195;-66
2022/09/07 11:39:38;;;;;;;3.60;1.50;;;;;;;;;;5087508;27;20685;-65
2022/09/07 11:42:12;;;;;;;4.55;1.75;;;;;;;;;;5079797;27;20206;-67
2022/09/07 11:45:02;;;;;;;2.67;1.40;;;;;;;;;;5081752;27;20212;-67
2022/09/07 11:47:42;;;;;;;2.10;1.30;;;;;;;;;;5084597;27;20261;-66
2022/09/07 11:50:18;;;;;;;3.80;1.52;;;;;;;;;;5097867;27;20290;-65
2022/09/07 11:52:49;;;;;;;2.92;1.50;;;;;;;;;;5094926;27;20700;-67
2022/09/07 11:55:24;;;;;;;3.42;1.52;;;;;;;;;;5094880;27;20203;-66
2022/09/07 11:58:12;;;;;;;2.05;1.30;;;;;;;;;;5091586;27;20206;-66
2022/09/07 12:00:39;;;;;;;2.83;1.23;;;;;;;;;;5086731;27;20731;-68
2022/09/07 12:03:22;;;;;;;1.60;1.40;;;;;;;;;;5088304;27;20224;-66
2022/09/07 12:05:53;;;;;;;3.58;1.30;;;;;;;;;;5097492;27;20204;-65
2022/09/07 12:08:30;;;;;;;1.83;1.33;;;;;;;;;;5092545;27;20220;-66
2022/09/07 12:11:16;;;;;;;2.97;1.40;;;;;;;;;;5102083;27;20280;-68
2022/09/07 12:14:02;;;;;;;6.93;1.50;;;;;;;;;;5085264;27;20307;-65
2022/09/07 12:16:30;;;;;;;5.82;1.50;;;;;;;;;;5112145;27;20294;-66
2022/09/07 12:19:10;;;;;;;4.07;1.60;;;;;;;;;;5117991;27;20219;-64
2022/09/07 12:21:42;;;;;;;2.58;1.30;;;;;;;;;;5091931;27;20828;-66
2022/09/07 12:24:28;;;;;;;2.80;1.30;;;;;;;;;;5089633;27;20234;-65
2022/09/07 12:26:56;;;;;;;3.35;1.20;;;;;;;;;;5087395;27;20299;-68
2022/09/07 12:29:25;;;;;;;2.75;1.38;;;;;;;;;;5092519;27;20629;-66
2022/09/07 12:31:53;;;;;;;3.72;1.30;;;;;;;;;;5088344;27;20299;-66
2022/09/07 12:34:32;;;;;;;2.25;1.30;;;;;;;;;;5086537;27;20657;-67
2022/09/07 12:37:04;;;;;;;3.10;1.70;;;;;;;;;;5087883;27;20200;-66
2022/09/07 12:39:42;;;;;;;5.65;1.50;;;;;;;;;;5096057;27;20200;-65
2022/09/07 12:42:23;;;;;;;3.40;1.30;;;;;;;;;;5098376;28;20857;-65
2022/09/07 12:45:18;;;;;;;1.65;1.33;;;;;;;;;;5118837;27;20207;-66
2022/09/07 12:47:56;;;;;;;7.70;1.70;;;;;;;;;;5094747;28;20709;-66
2022/09/07 12:50:33;;;;;;;2.42;1.40;;;;;;;;;;5098672;28;20704;-66
2022/09/07 12:53:24;;;;;;;2.65;1.20;;;;;;;;;;5094476;27;20812;-66
2022/09/07 12:56:07;;;;;;;3.15;1.27;;;;;;;;;;5094144;27;20196;-67
2022/09/07 12:58:55;;;;;;;2.70;1.17;;;;;;;;;;5086666;27;20219;-66
2022/09/07 13:01:40;;;;;;;3.58;1.50;;;;;;;;;;5127571;27;20298;-66
2022/09/07 13:04:14;;;;;;;2.42;1.48;;;;;;;;;;5129130;27;20272;-67
2022/09/07 13:06:54;;;;;;;3.30;1.40;;;;;;;;;;5110159;27;20303;-66
2022/09/07 13:09:39;;;;;;;1.98;1.15;;;;;;;;;;5109807;27;20226;-67
2022/09/07 13:12:23;;;;;;;3.72;1.30;;;;;;;;;;5120990;27;20267;-67
2022/09/07 13:15:39;;;;;;;3.67;1.65;;;;;;;;;;5117681;27;21117;-65
2022/09/07 13:18:26;;;;;;;2.08;1.20;;;;;;;;;;5091203;27;20227;-67
2022/09/07 13:21:09;;;;;;;1.85;1.38;;;;;;;;;;5115853;27;20594;-67
2022/09/07 13:23:37;;;;;;;3.38;1.40;;;;;;;;;;5098631;27;20223;-67
2022/09/07 13:26:06;;;;;;;2.40;2.00;;;;;;;;;;5103317;27;21592;-65
2022/09/07 13:28:36;;;;;;;2.13;1.40;;;;;;;;;;5110366;27;20222;-65
2022/09/07 13:31:22;;;;;;;4.10;1.20;;;;;;;;;;5115026;27;20314;-66
2022/09/07 13:33:50;;;;;;;2.30;1.20;;;;;;;;;;5115238;27;20227;-66
2022/09/07 13:36:34;;;;;;;7.25;2.22;;;;;;;;;;5110630;27;20286;-66
2022/09/07 13:39:05;;;;;;;1.83;1.38;;;;;;;;;;5087348;27;20235;-65
2022/09/07 13:41:35;;;;;;;1.50;1.20;;;;;;;;;;5086377;27;20294;-65
2022/09/07 13:44:04;;;;;;;2.47;1.30;;;;;;;;;;5092935;27;20302;-68
2022/09/07 13:46:40;;;;;;;1.42;1.10;;;;;;;;;;5110562;27;22641;-68
2022/09/07 13:49:26;;;;;;;3.97;1.40;;;;;;;;;;5097943;27;20309;-68
2022/09/07 13:52:03;;;;;;;6.55;1.60;;;;;;;;;;5109686;27;20232;-67
2022/09/07 13:54:33;;;;;;;2.67;1.40;;;;;;;;;;5099215;27;20302;-66
2022/09/07 13:57:19;;;;;;;1.50;1.20;;;;;;;;;;5107854;27;20221;-67
2022/09/07 13:59:49;;;;;;;2.33;1.27;;;;;;;;;;5098261;27;20214;-66
2022/09/07 14:02:22;;;;;;;1.60;1.20;;;;;;;;;;5108367;27;20720;-66
2022/09/07 14:04:50;;;;;;;1.38;1.10;;;;;;;;;;5108250;27;20209;-66
2022/09/07 14:07:27;;;;;;;2.25;1.30;;;;;;;;;;5098752;27;20208;-67
2022/09/07 14:10:05;;;;;;;3.58;1.70;;;;;;;;;;5096108;27;20246;-65
2022/09/07 14:12:40;;;;;;;3.35;1.30;;;;;;;;;;5098294;27;20265;-65
2022/09/07 14:15:09;;;;;;;2.08;1.10;;;;;;;;;;5089639;27;20191;-64
2022/09/07 14:17:37;;;;;;;3.60;1.75;;;;;;;;;;5101623;27;20286;-64
2022/09/07 14:20:05;;;;;;;2.88;1.40;;;;;;;;;;5102535;27;20287;-65
2022/09/07 14:22:34;;;;;;;2.42;1.58;;;;;;;;;;5111917;27;20215;-66
2022/09/07 14:25:03;;;;;;;4.53;1.38;;;;;;;;;;5088614;27;22030;-65
2022/09/07 14:27:33;;;;;;;2.17;1.33;;;;;;;;;;5094191;27;20216;-65
2022/09/07 14:30:19;;;;;;;2.63;1.30;;;;;;;;;;5105401;27;20223;-65
2022/09/07 14:32:48;;;;;;;2.25;1.10;;;;;;;;;;5094306;27;20580;-66
2022/09/07 14:35:21;;;;;;;2.10;1.48;;;;;;;;;;5104123;27;20980;-66
2022/09/07 14:37:49;;;;;;;2.10;1.42;;;;;;;;;;5104348;27;20210;-68
2022/09/07 14:40:20;;;;;;;2.10;1.20;;;;;;;;;;5099741;27;20821;-67
2022/09/07 14:42:48;;;;;;;3.95;1.70;;;;;;;;;;5101606;27;20713;-67
2022/09/07 14:45:22;;;;;;;3.03;1.10;;;;;;;;;;5111295;27;20208;-66
2022/09/07 14:47:51;;;;;;;3.17;1.38;;;;;;;;;;5097135;27;20220;-67
2022/09/07 14:50:21;;;;;;;2.95;1.20;;;;;;;;;;5094406;27;20220;-67
2022/09/07 14:52:49;;;;;;;2.67;1.50;;;;;;;;;;5101722;27;20250;-66
2022/09/07 14:55:38;;;;;;;2.53;1.25;;;;;;;;;;5117000;27;20199;-66
2022/09/07 14:58:09;;;;;;;1.80;1.30;;;;;;;;;;5093053;27;20226;-66
2022/09/07 15:00:37;;;;;;;2.38;1.20;;;;;;;;;;5093141;27;20913;-66
2022/09/07 15:03:24;;;;;;;2.80;1.48;;;;;;;;;;5088187;27;20310;-67
2022/09/07 15:05:51;;;;;;;2.90;1.27;;;;;;;;;;5092152;27;20880;-65
2022/09/07 15:08:39;;;;;;;2.78;1.42;;;;;;;;;;5091310;27;20212;-67
2022/09/07 15:11:07;;;;;;;2.72;1.20;;;;;;;;;;5095929;27;20755;-67
2022/09/07 15:13:57;;;;;;;3.08;1.30;;;;;;;;;;5101631;27;20224;-65
2022/09/07 15:16:32;;;;;;;4.18;1.40;;;;;;;;;;5091421;27;20234;-67
2022/09/07 15:19:15;;;;;;;2.45;1.38;;;;;;;;;;5096547;27;20296;-67